sensor_id;sensor_type;location;lat;lon;timestamp;P1;durP1;ratioP1;P2;durP2;ratioP2
9214;SDS011;4642;51.364;6.788;2023-02-23T00:01:24;36.80;;;27.40;;
9214;SDS011;4642;51.364;6.788;2023-02-23T00:03:53;40.93;;;26.60;;
9214;SDS011;4642;51.364;6.788;2023-02-23T00:06:22;35.03;;;27.13;;
9214;SDS011;4642;51.364;6.788;2023-02-23T00:08:49;34.47;;;26.27;;
9214;SDS011;4642;51.364;6.788;2023-02-23T00:11:16;38.07;;;26.60;;
9214;SDS011;4642;51.364;6.788;2023-02-23T00:13:43;33.90;;;25.63;;
9214;SDS011;4642;51.364;6.788;2023-02-23T00:16:11;39.47;;;27.27;;
9214;SDS011;4642;51.364;6.788;2023-02-23T00:18:42;34.13;;;25.53;;
9214;SDS011;4642;51.364;6.788;2023-02-23T00:21:10;36.97;;;26.87;;
9214;SDS011;4642;51.364;6.788;2023-02-23T00:23:39;34.47;;;25.93;;
9214;SDS011;4642;51.364;6.788;2023-02-23T00:26:15;34.53;;;25.97;;
9214;SDS011;4642;51.364;6.788;2023-02-23T00:28:44;36.03;;;25.77;;
9214;SDS011;4642;51.364;6.788;2023-02-23T00:31:10;33.27;;;25.60;;
9214;SDS011;4642;51.364;6.788;2023-02-23T00:33:36;36.97;;;25.83;;
9214;SDS011;4642;51.364;6.788;2023-02-23T00:36:12;36.10;;;26.37;;
9214;SDS011;4642;51.364;6.788;2023-02-23T00:38:39;37.10;;;28.10;;
9214;SDS011;4642;51.364;6.788;2023-02-23T00:43:36;36.63;;;27.10;;
9214;SDS011;4642;51.364;6.788;2023-02-23T00:46:03;36.00;;;27.07;;
9214;SDS011;4642;51.364;6.788;2023-02-23T00:48:30;39.73;;;26.73;;
9214;SDS011;4642;51.364;6.788;2023-02-23T00:50:57;41.97;;;29.07;;
9214;SDS011;4642;51.364;6.788;2023-02-23T00:53:27;38.87;;;28.90;;
9214;SDS011;4642;51.364;6.788;2023-02-23T00:55:53;39.83;;;28.23;;
9214;SDS011;4642;51.364;6.788;2023-02-23T00:58:20;34.33;;;25.77;;
9214;SDS011;4642;51.364;6.788;2023-02-23T01:00:46;34.50;;;26.43;;
9214;SDS011;4642;51.364;6.788;2023-02-23T01:03:12;37.70;;;26.07;;
9214;SDS011;4642;51.364;6.788;2023-02-23T01:05:37;34.67;;;25.37;;
9214;SDS011;4642;51.364;6.788;2023-02-23T01:08:03;36.27;;;26.17;;
9214;SDS011;4642;51.364;6.788;2023-02-23T01:10:33;35.73;;;26.00;;
9214;SDS011;4642;51.364;6.788;2023-02-23T01:13:03;42.53;;;26.80;;
9214;SDS011;4642;51.364;6.788;2023-02-23T01:15:29;35.17;;;26.63;;
9214;SDS011;4642;51.364;6.788;2023-02-23T01:17:56;35.60;;;26.73;;
9214;SDS011;4642;51.364;6.788;2023-02-23T01:20:22;38.80;;;27.33;;
9214;SDS011;4642;51.364;6.788;2023-02-23T01:22:49;34.33;;;26.03;;
9214;SDS011;4642;51.364;6.788;2023-02-23T01:25:16;37.13;;;27.70;;
9214;SDS011;4642;51.364;6.788;2023-02-23T01:27:42;35.27;;;26.43;;
9214;SDS011;4642;51.364;6.788;2023-02-23T01:30:09;38.57;;;27.10;;
9214;SDS011;4642;51.364;6.788;2023-02-23T01:32:36;35.23;;;26.20;;
9214;SDS011;4642;51.364;6.788;2023-02-23T01:35:03;36.30;;;27.00;;
9214;SDS011;4642;51.364;6.788;2023-02-23T01:37:32;35.57;;;26.53;;
9214;SDS011;4642;51.364;6.788;2023-02-23T01:39:59;31.10;;;24.57;;
9214;SDS011;4642;51.364;6.788;2023-02-23T01:42:25;35.00;;;25.03;;
9214;SDS011;4642;51.364;6.788;2023-02-23T01:47:16;38.90;;;27.63;;
9214;SDS011;4642;51.364;6.788;2023-02-23T01:49:44;36.93;;;26.50;;
9214;SDS011;4642;51.364;6.788;2023-02-23T01:52:11;34.73;;;24.93;;
9214;SDS011;4642;51.364;6.788;2023-02-23T01:54:40;38.00;;;26.67;;
9214;SDS011;4642;51.364;6.788;2023-02-23T01:57:18;35.77;;;26.67;;
9214;SDS011;4642;51.364;6.788;2023-02-23T01:59:47;34.23;;;27.10;;
9214;SDS011;4642;51.364;6.788;2023-02-23T02:02:15;34.87;;;24.80;;
9214;SDS011;4642;51.364;6.788;2023-02-23T02:04:42;37.27;;;26.73;;
9214;SDS011;4642;51.364;6.788;2023-02-23T02:07:15;36.33;;;26.90;;
9214;SDS011;4642;51.364;6.788;2023-02-23T02:09:44;33.97;;;25.57;;
9214;SDS011;4642;51.364;6.788;2023-02-23T02:12:30;32.87;;;24.90;;
9214;SDS011;4642;51.364;6.788;2023-02-23T02:14:57;35.97;;;25.07;;
9214;SDS011;4642;51.364;6.788;2023-02-23T02:20:16;38.83;;;26.60;;
9214;SDS011;4642;51.364;6.788;2023-02-23T02:29:03;35.80;;;25.80;;
9214;SDS011;4642;51.364;6.788;2023-02-23T02:35:03;36.97;;;25.87;;
9214;SDS011;4642;51.364;6.788;2023-02-23T02:42:58;40.43;;;28.20;;
9214;SDS011;4642;51.364;6.788;2023-02-23T02:48:23;36.70;;;27.00;;
9214;SDS011;4642;51.364;6.788;2023-02-23T02:50:57;37.07;;;26.27;;
9214;SDS011;4642;51.364;6.788;2023-02-23T02:53:48;37.27;;;26.50;;
9214;SDS011;4642;51.364;6.788;2023-02-23T02:56:21;37.13;;;27.47;;
9214;SDS011;4642;51.364;6.788;2023-02-23T02:58:49;41.07;;;28.03;;
9214;SDS011;4642;51.364;6.788;2023-02-23T03:01:17;42.70;;;29.70;;
9214;SDS011;4642;51.364;6.788;2023-02-23T03:04:19;39.37;;;28.20;;
9214;SDS011;4642;51.364;6.788;2023-02-23T03:07:19;43.10;;;29.57;;
9214;SDS011;4642;51.364;6.788;2023-02-23T03:10:55;44.03;;;29.93;;
9214;SDS011;4642;51.364;6.788;2023-02-23T03:16:36;38.93;;;28.07;;
9214;SDS011;4642;51.364;6.788;2023-02-23T03:19:31;37.93;;;27.37;;
9214;SDS011;4642;51.364;6.788;2023-02-23T03:22:27;39.40;;;28.40;;
9214;SDS011;4642;51.364;6.788;2023-02-23T03:28:43;37.20;;;27.47;;
9214;SDS011;4642;51.364;6.788;2023-02-23T03:34:36;32.17;;;24.70;;
9214;SDS011;4642;51.364;6.788;2023-02-23T03:37:47;35.83;;;24.57;;
9214;SDS011;4642;51.364;6.788;2023-02-23T03:40:38;46.13;;;27.97;;
9214;SDS011;4642;51.364;6.788;2023-02-23T03:43:31;49.90;;;31.97;;
9214;SDS011;4642;51.364;6.788;2023-02-23T03:46:19;56.33;;;34.47;;
9214;SDS011;4642;51.364;6.788;2023-02-23T03:49:06;49.40;;;32.93;;
9214;SDS011;4642;51.364;6.788;2023-02-23T03:51:52;51.00;;;32.23;;
9214;SDS011;4642;51.364;6.788;2023-02-23T03:54:55;52.80;;;34.63;;
9214;SDS011;4642;51.364;6.788;2023-02-23T03:57:42;36.80;;;26.90;;
9214;SDS011;4642;51.364;6.788;2023-02-23T04:00:31;60.50;;;36.47;;
9214;SDS011;4642;51.364;6.788;2023-02-23T04:03:19;62.57;;;36.00;;
9214;SDS011;4642;51.364;6.788;2023-02-23T04:06:06;65.07;;;36.80;;
9214;SDS011;4642;51.364;6.788;2023-02-23T04:08:54;61.73;;;37.47;;
9214;SDS011;4642;51.364;6.788;2023-02-23T04:15:00;57.83;;;35.80;;
9214;SDS011;4642;51.364;6.788;2023-02-23T04:17:31;68.83;;;38.70;;
9214;SDS011;4642;51.364;6.788;2023-02-23T04:19:58;59.93;;;35.67;;
9214;SDS011;4642;51.364;6.788;2023-02-23T04:22:24;55.03;;;35.63;;
9214;SDS011;4642;51.364;6.788;2023-02-23T04:24:49;60.33;;;35.63;;
9214;SDS011;4642;51.364;6.788;2023-02-23T04:27:15;58.43;;;34.63;;
9214;SDS011;4642;51.364;6.788;2023-02-23T04:29:41;64.43;;;37.17;;
9214;SDS011;4642;51.364;6.788;2023-02-23T04:32:08;61.37;;;36.17;;
9214;SDS011;4642;51.364;6.788;2023-02-23T04:34:37;65.63;;;37.07;;
9214;SDS011;4642;51.364;6.788;2023-02-23T04:37:03;69.43;;;39.00;;
9214;SDS011;4642;51.364;6.788;2023-02-23T04:39:29;68.37;;;38.70;;
9214;SDS011;4642;51.364;6.788;2023-02-23T04:41:54;75.17;;;40.43;;
9214;SDS011;4642;51.364;6.788;2023-02-23T04:44:20;61.83;;;37.60;;
9214;SDS011;4642;51.364;6.788;2023-02-23T04:46:45;61.40;;;36.03;;
9214;SDS011;4642;51.364;6.788;2023-02-23T04:49:11;56.83;;;35.63;;
9214;SDS011;4642;51.364;6.788;2023-02-23T04:51:36;54.97;;;35.37;;
9214;SDS011;4642;51.364;6.788;2023-02-23T04:54:02;60.23;;;36.10;;
9214;SDS011;4642;51.364;6.788;2023-02-23T04:56:28;58.73;;;37.00;;
9214;SDS011;4642;51.364;6.788;2023-02-23T04:58:54;61.43;;;38.17;;
9214;SDS011;4642;51.364;6.788;2023-02-23T05:01:20;58.87;;;36.67;;
9214;SDS011;4642;51.364;6.788;2023-02-23T05:03:46;66.03;;;38.20;;
9214;SDS011;4642;51.364;6.788;2023-02-23T05:06:13;63.50;;;37.77;;
9214;SDS011;4642;51.364;6.788;2023-02-23T05:08:39;63.60;;;38.30;;
9214;SDS011;4642;51.364;6.788;2023-02-23T05:11:05;63.10;;;38.03;;
9214;SDS011;4642;51.364;6.788;2023-02-23T05:13:31;68.57;;;37.97;;
9214;SDS011;4642;51.364;6.788;2023-02-23T05:15:57;62.80;;;38.57;;
9214;SDS011;4642;51.364;6.788;2023-02-23T05:18:22;60.90;;;36.67;;
9214;SDS011;4642;51.364;6.788;2023-02-23T05:20:49;62.33;;;38.20;;
9214;SDS011;4642;51.364;6.788;2023-02-23T05:23:15;59.50;;;35.93;;
9214;SDS011;4642;51.364;6.788;2023-02-23T05:25:40;63.67;;;38.23;;
9214;SDS011;4642;51.364;6.788;2023-02-23T05:28:06;62.40;;;38.00;;
9214;SDS011;4642;51.364;6.788;2023-02-23T05:30:31;62.43;;;37.60;;
9214;SDS011;4642;51.364;6.788;2023-02-23T05:32:57;63.60;;;38.43;;
9214;SDS011;4642;51.364;6.788;2023-02-23T05:35:23;57.17;;;34.97;;
9214;SDS011;4642;51.364;6.788;2023-02-23T05:37:49;61.13;;;37.00;;
9214;SDS011;4642;51.364;6.788;2023-02-23T05:40:14;66.53;;;39.70;;
9214;SDS011;4642;51.364;6.788;2023-02-23T05:42:40;67.60;;;38.97;;
9214;SDS011;4642;51.364;6.788;2023-02-23T05:45:05;68.97;;;40.30;;
9214;SDS011;4642;51.364;6.788;2023-02-23T05:47:32;62.80;;;37.00;;
9214;SDS011;4642;51.364;6.788;2023-02-23T05:50:02;66.70;;;38.67;;
9214;SDS011;4642;51.364;6.788;2023-02-23T05:52:29;63.67;;;36.10;;
9214;SDS011;4642;51.364;6.788;2023-02-23T05:54:55;64.10;;;38.03;;
9214;SDS011;4642;51.364;6.788;2023-02-23T05:57:21;63.30;;;37.10;;
9214;SDS011;4642;51.364;6.788;2023-02-23T05:59:46;70.30;;;39.07;;
9214;SDS011;4642;51.364;6.788;2023-02-23T06:02:12;68.53;;;39.13;;
9214;SDS011;4642;51.364;6.788;2023-02-23T06:04:38;65.37;;;38.43;;
9214;SDS011;4642;51.364;6.788;2023-02-23T06:07:03;66.23;;;37.10;;
9214;SDS011;4642;51.364;6.788;2023-02-23T06:09:29;63.87;;;37.40;;
9214;SDS011;4642;51.364;6.788;2023-02-23T06:11:55;65.33;;;38.60;;
9214;SDS011;4642;51.364;6.788;2023-02-23T06:14:20;67.30;;;40.63;;
9214;SDS011;4642;51.364;6.788;2023-02-23T06:16:46;70.33;;;39.17;;
9214;SDS011;4642;51.364;6.788;2023-02-23T06:19:12;69.20;;;39.17;;
9214;SDS011;4642;51.364;6.788;2023-02-23T06:21:38;66.53;;;40.10;;
9214;SDS011;4642;51.364;6.788;2023-02-23T06:24:05;66.90;;;40.30;;
9214;SDS011;4642;51.364;6.788;2023-02-23T06:26:30;65.87;;;39.00;;
9214;SDS011;4642;51.364;6.788;2023-02-23T06:28:57;70.37;;;40.53;;
9214;SDS011;4642;51.364;6.788;2023-02-23T06:31:22;72.97;;;40.20;;
9214;SDS011;4642;51.364;6.788;2023-02-23T06:33:48;66.80;;;38.63;;
9214;SDS011;4642;51.364;6.788;2023-02-23T06:36:14;72.30;;;42.27;;
9214;SDS011;4642;51.364;6.788;2023-02-23T06:38:39;72.20;;;41.03;;
9214;SDS011;4642;51.364;6.788;2023-02-23T06:41:05;67.97;;;37.80;;
9214;SDS011;4642;51.364;6.788;2023-02-23T06:43:34;65.13;;;37.70;;
9214;SDS011;4642;51.364;6.788;2023-02-23T06:46:00;71.77;;;38.17;;
9214;SDS011;4642;51.364;6.788;2023-02-23T06:48:26;73.70;;;41.47;;
9214;SDS011;4642;51.364;6.788;2023-02-23T06:50:51;68.27;;;39.67;;
9214;SDS011;4642;51.364;6.788;2023-02-23T06:53:17;72.80;;;39.50;;
9214;SDS011;4642;51.364;6.788;2023-02-23T06:55:44;75.50;;;40.23;;
9214;SDS011;4642;51.364;6.788;2023-02-23T06:58:10;68.00;;;40.80;;
9214;SDS011;4642;51.364;6.788;2023-02-23T07:00:35;69.40;;;38.60;;
9214;SDS011;4642;51.364;6.788;2023-02-23T07:03:03;76.83;;;40.67;;
9214;SDS011;4642;51.364;6.788;2023-02-23T07:05:28;74.47;;;37.60;;
9214;SDS011;4642;51.364;6.788;2023-02-23T07:07:54;70.67;;;38.77;;
9214;SDS011;4642;51.364;6.788;2023-02-23T07:10:19;76.37;;;37.83;;
9214;SDS011;4642;51.364;6.788;2023-02-23T07:12:45;75.10;;;38.27;;
9214;SDS011;4642;51.364;6.788;2023-02-23T07:15:11;72.23;;;39.23;;
9214;SDS011;4642;51.364;6.788;2023-02-23T07:17:36;82.20;;;38.33;;
9214;SDS011;4642;51.364;6.788;2023-02-23T07:20:02;77.40;;;40.10;;
9214;SDS011;4642;51.364;6.788;2023-02-23T07:22:28;72.93;;;38.00;;
9214;SDS011;4642;51.364;6.788;2023-02-23T07:24:55;76.57;;;40.07;;
9214;SDS011;4642;51.364;6.788;2023-02-23T07:27:20;72.37;;;38.43;;
9214;SDS011;4642;51.364;6.788;2023-02-23T07:29:46;70.90;;;39.47;;
9214;SDS011;4642;51.364;6.788;2023-02-23T07:32:12;78.87;;;41.70;;
9214;SDS011;4642;51.364;6.788;2023-02-23T07:34:37;74.80;;;38.27;;
9214;SDS011;4642;51.364;6.788;2023-02-23T07:37:03;75.97;;;39.43;;
9214;SDS011;4642;51.364;6.788;2023-02-23T07:39:29;72.10;;;38.13;;
9214;SDS011;4642;51.364;6.788;2023-02-23T07:41:55;75.23;;;39.63;;
9214;SDS011;4642;51.364;6.788;2023-02-23T07:44:21;71.43;;;38.17;;
9214;SDS011;4642;51.364;6.788;2023-02-23T07:46:46;76.33;;;38.80;;
9214;SDS011;4642;51.364;6.788;2023-02-23T07:49:12;78.20;;;39.53;;
9214;SDS011;4642;51.364;6.788;2023-02-23T07:51:38;79.93;;;37.57;;
9214;SDS011;4642;51.364;6.788;2023-02-23T07:54:04;77.20;;;39.20;;
9214;SDS011;4642;51.364;6.788;2023-02-23T07:56:31;73.70;;;38.67;;
9214;SDS011;4642;51.364;6.788;2023-02-23T07:58:56;81.90;;;42.37;;
9214;SDS011;4642;51.364;6.788;2023-02-23T08:01:22;85.17;;;42.10;;
9214;SDS011;4642;51.364;6.788;2023-02-23T08:03:48;84.77;;;40.23;;
9214;SDS011;4642;51.364;6.788;2023-02-23T08:06:14;84.27;;;39.67;;
9214;SDS011;4642;51.364;6.788;2023-02-23T08:08:40;92.27;;;41.47;;
9214;SDS011;4642;51.364;6.788;2023-02-23T08:11:06;80.67;;;40.17;;
9214;SDS011;4642;51.364;6.788;2023-02-23T08:13:31;80.20;;;40.53;;
9214;SDS011;4642;51.364;6.788;2023-02-23T08:15:58;88.33;;;40.53;;
9214;SDS011;4642;51.364;6.788;2023-02-23T08:18:24;73.30;;;37.13;;
9214;SDS011;4642;51.364;6.788;2023-02-23T08:20:50;82.10;;;37.20;;
9214;SDS011;4642;51.364;6.788;2023-02-23T08:23:21;82.97;;;38.70;;
9214;SDS011;4642;51.364;6.788;2023-02-23T08:25:46;76.13;;;38.33;;
9214;SDS011;4642;51.364;6.788;2023-02-23T08:28:12;85.77;;;38.80;;
9214;SDS011;4642;51.364;6.788;2023-02-23T08:30:39;80.67;;;38.67;;
9214;SDS011;4642;51.364;6.788;2023-02-23T08:33:05;77.13;;;37.67;;
9214;SDS011;4642;51.364;6.788;2023-02-23T08:35:31;80.40;;;38.17;;
9214;SDS011;4642;51.364;6.788;2023-02-23T08:37:57;81.40;;;38.53;;
9214;SDS011;4642;51.364;6.788;2023-02-23T08:40:22;79.03;;;36.97;;
9214;SDS011;4642;51.364;6.788;2023-02-23T08:42:48;71.20;;;37.27;;
9214;SDS011;4642;51.364;6.788;2023-02-23T08:45:16;85.03;;;37.80;;
9214;SDS011;4642;51.364;6.788;2023-02-23T08:47:42;76.77;;;35.80;;
9214;SDS011;4642;51.364;6.788;2023-02-23T08:50:08;74.83;;;37.23;;
9214;SDS011;4642;51.364;6.788;2023-02-23T08:52:35;74.23;;;36.03;;
9214;SDS011;4642;51.364;6.788;2023-02-23T08:55:01;73.27;;;35.70;;
9214;SDS011;4642;51.364;6.788;2023-02-23T08:57:27;71.67;;;34.83;;
9214;SDS011;4642;51.364;6.788;2023-02-23T08:59:52;73.80;;;35.47;;
9214;SDS011;4642;51.364;6.788;2023-02-23T09:02:18;62.30;;;33.90;;
9214;SDS011;4642;51.364;6.788;2023-02-23T09:04:43;66.77;;;33.70;;
9214;SDS011;4642;51.364;6.788;2023-02-23T09:07:13;68.33;;;33.83;;
9214;SDS011;4642;51.364;6.788;2023-02-23T09:09:40;64.90;;;33.33;;
9214;SDS011;4642;51.364;6.788;2023-02-23T09:12:05;64.30;;;34.17;;
9214;SDS011;4642;51.364;6.788;2023-02-23T09:14:31;71.03;;;32.83;;
9214;SDS011;4642;51.364;6.788;2023-02-23T09:16:57;65.50;;;32.17;;
9214;SDS011;4642;51.364;6.788;2023-02-23T09:19:22;64.17;;;32.87;;
9214;SDS011;4642;51.364;6.788;2023-02-23T09:21:48;70.23;;;34.00;;
9214;SDS011;4642;51.364;6.788;2023-02-23T09:24:14;71.93;;;33.47;;
9214;SDS011;4642;51.364;6.788;2023-02-23T09:26:42;62.43;;;33.63;;
9214;SDS011;4642;51.364;6.788;2023-02-23T09:29:08;63.93;;;31.63;;
9214;SDS011;4642;51.364;6.788;2023-02-23T09:31:33;57.37;;;29.80;;
9214;SDS011;4642;51.364;6.788;2023-02-23T09:33:59;61.77;;;30.90;;
9214;SDS011;4642;51.364;6.788;2023-02-23T09:36:28;58.87;;;30.57;;
9214;SDS011;4642;51.364;6.788;2023-02-23T09:38:54;59.57;;;28.97;;
9214;SDS011;4642;51.364;6.788;2023-02-23T09:49:20;60.70;;;31.63;;
9214;SDS011;4642;51.364;6.788;2023-02-23T09:51:50;59.47;;;29.07;;
9214;SDS011;4642;51.364;6.788;2023-02-23T09:54:22;52.73;;;27.37;;
9214;SDS011;4642;51.364;6.788;2023-02-23T09:56:51;54.47;;;27.97;;
9214;SDS011;4642;51.364;6.788;2023-02-23T09:59:20;53.23;;;27.47;;
9214;SDS011;4642;51.364;6.788;2023-02-23T10:17:43;62.57;;;27.50;;
9214;SDS011;4642;51.364;6.788;2023-02-23T10:22:45;47.87;;;25.87;;
9214;SDS011;4642;51.364;6.788;2023-02-23T10:25:18;49.07;;;25.00;;
9214;SDS011;4642;51.364;6.788;2023-02-23T10:27:50;48.60;;;23.37;;
9214;SDS011;4642;51.364;6.788;2023-02-23T10:30:23;51.70;;;24.73;;
9214;SDS011;4642;51.364;6.788;2023-02-23T10:35:31;42.67;;;22.73;;
9214;SDS011;4642;51.364;6.788;2023-02-23T10:37:58;44.00;;;23.40;;
9214;SDS011;4642;51.364;6.788;2023-02-23T10:40:25;46.27;;;23.60;;
9214;SDS011;4642;51.364;6.788;2023-02-23T10:42:53;49.60;;;24.10;;
9214;SDS011;4642;51.364;6.788;2023-02-23T10:45:22;47.77;;;24.33;;
9214;SDS011;4642;51.364;6.788;2023-02-23T10:47:51;52.73;;;26.77;;
9214;SDS011;4642;51.364;6.788;2023-02-23T10:50:20;52.67;;;26.40;;
9214;SDS011;4642;51.364;6.788;2023-02-23T10:52:50;53.70;;;25.93;;
9214;SDS011;4642;51.364;6.788;2023-02-23T10:55:33;52.40;;;26.00;;
9214;SDS011;4642;51.364;6.788;2023-02-23T11:01:02;54.80;;;26.63;;
9214;SDS011;4642;51.364;6.788;2023-02-23T11:03:31;51.53;;;25.07;;
9214;SDS011;4642;51.364;6.788;2023-02-23T11:06:03;53.93;;;27.00;;
9214;SDS011;4642;51.364;6.788;2023-02-23T11:08:30;51.70;;;24.93;;
9214;SDS011;4642;51.364;6.788;2023-02-23T11:11:04;47.03;;;24.63;;
9214;SDS011;4642;51.364;6.788;2023-02-23T11:13:40;48.23;;;24.77;;
9214;SDS011;4642;51.364;6.788;2023-02-23T11:16:14;43.27;;;23.47;;
9214;SDS011;4642;51.364;6.788;2023-02-23T11:18:48;46.33;;;23.47;;
9214;SDS011;4642;51.364;6.788;2023-02-23T11:21:20;37.50;;;21.73;;
9214;SDS011;4642;51.364;6.788;2023-02-23T11:23:49;40.70;;;21.70;;
9214;SDS011;4642;51.364;6.788;2023-02-23T11:26:22;40.10;;;22.60;;
9214;SDS011;4642;51.364;6.788;2023-02-23T11:28:54;44.80;;;22.70;;
9214;SDS011;4642;51.364;6.788;2023-02-23T11:31:30;39.80;;;21.07;;
9214;SDS011;4642;51.364;6.788;2023-02-23T11:33:58;39.90;;;21.40;;
9214;SDS011;4642;51.364;6.788;2023-02-23T11:36:28;38.80;;;21.80;;
9214;SDS011;4642;51.364;6.788;2023-02-23T11:41:47;37.03;;;20.37;;
9214;SDS011;4642;51.364;6.788;2023-02-23T11:44:39;37.50;;;21.10;;
9214;SDS011;4642;51.364;6.788;2023-02-23T11:47:12;37.10;;;20.73;;
9214;SDS011;4642;51.364;6.788;2023-02-23T11:49:43;37.13;;;20.90;;
9214;SDS011;4642;51.364;6.788;2023-02-23T11:52:12;42.33;;;20.50;;
9214;SDS011;4642;51.364;6.788;2023-02-23T11:54:41;35.67;;;20.37;;
9214;SDS011;4642;51.364;6.788;2023-02-23T11:57:19;36.37;;;21.33;;
9214;SDS011;4642;51.364;6.788;2023-02-23T11:59:48;34.60;;;20.50;;
9214;SDS011;4642;51.364;6.788;2023-02-23T12:02:18;37.40;;;20.20;;
9214;SDS011;4642;51.364;6.788;2023-02-23T12:04:47;31.53;;;18.07;;
9214;SDS011;4642;51.364;6.788;2023-02-23T12:10:38;39.33;;;20.30;;
9214;SDS011;4642;51.364;6.788;2023-02-23T12:18:07;35.87;;;19.03;;
9214;SDS011;4642;51.364;6.788;2023-02-23T12:20:41;35.83;;;18.40;;
9214;SDS011;4642;51.364;6.788;2023-02-23T12:23:11;35.63;;;18.53;;
9214;SDS011;4642;51.364;6.788;2023-02-23T12:28:31;31.20;;;17.10;;
9214;SDS011;4642;51.364;6.788;2023-02-23T12:32:01;31.40;;;16.70;;
9214;SDS011;4642;51.364;6.788;2023-02-23T12:34:27;30.73;;;16.10;;
9214;SDS011;4642;51.364;6.788;2023-02-23T12:37:22;29.90;;;16.37;;
9214;SDS011;4642;51.364;6.788;2023-02-23T12:42:51;31.33;;;16.17;;
9214;SDS011;4642;51.364;6.788;2023-02-23T12:45:44;30.13;;;16.40;;
9214;SDS011;4642;51.364;6.788;2023-02-23T12:48:21;28.27;;;16.53;;
9214;SDS011;4642;51.364;6.788;2023-02-23T12:51:17;26.43;;;15.83;;
9214;SDS011;4642;51.364;6.788;2023-02-23T12:53:52;29.17;;;16.67;;
9214;SDS011;4642;51.364;6.788;2023-02-23T12:56:29;27.63;;;15.70;;
9214;SDS011;4642;51.364;6.788;2023-02-23T13:02:00;25.10;;;14.60;;
9214;SDS011;4642;51.364;6.788;2023-02-23T13:15:55;25.27;;;14.90;;
9214;SDS011;4642;51.364;6.788;2023-02-23T13:18:44;27.50;;;15.67;;
9214;SDS011;4642;51.364;6.788;2023-02-23T13:21:20;24.73;;;14.00;;
9214;SDS011;4642;51.364;6.788;2023-02-23T13:24:00;26.87;;;15.30;;
9214;SDS011;4642;51.364;6.788;2023-02-23T13:31:47;25.20;;;14.87;;
9214;SDS011;4642;51.364;6.788;2023-02-23T13:34:16;21.47;;;13.30;;
9214;SDS011;4642;51.364;6.788;2023-02-23T13:36:50;21.83;;;13.43;;
9214;SDS011;4642;51.364;6.788;2023-02-23T13:52:50;19.33;;;11.63;;
9214;SDS011;4642;51.364;6.788;2023-02-23T13:57:51;18.13;;;11.67;;
9214;SDS011;4642;51.364;6.788;2023-02-23T14:00:17;21.03;;;11.40;;
9214;SDS011;4642;51.364;6.788;2023-02-23T14:02:45;19.43;;;11.53;;
9214;SDS011;4642;51.364;6.788;2023-02-23T14:07:42;21.13;;;12.27;;
9214;SDS011;4642;51.364;6.788;2023-02-23T14:10:15;21.77;;;12.23;;
9214;SDS011;4642;51.364;6.788;2023-02-23T14:13:02;21.30;;;12.40;;
9214;SDS011;4642;51.364;6.788;2023-02-23T14:18:03;20.20;;;12.10;;
9214;SDS011;4642;51.364;6.788;2023-02-23T14:23:17;24.00;;;13.43;;
9214;SDS011;4642;51.364;6.788;2023-02-23T14:26:11;23.13;;;13.93;;
9214;SDS011;4642;51.364;6.788;2023-02-23T14:31:52;31.20;;;15.10;;
9214;SDS011;4642;51.364;6.788;2023-02-23T14:34:40;25.40;;;14.50;;
9214;SDS011;4642;51.364;6.788;2023-02-23T14:40:18;29.87;;;15.10;;
9214;SDS011;4642;51.364;6.788;2023-02-23T14:42:50;31.97;;;15.47;;
9214;SDS011;4642;51.364;6.788;2023-02-23T14:45:21;30.27;;;15.87;;
9214;SDS011;4642;51.364;6.788;2023-02-23T14:47:55;29.07;;;15.00;;
9214;SDS011;4642;51.364;6.788;2023-02-23T14:50:27;27.70;;;14.53;;
9214;SDS011;4642;51.364;6.788;2023-02-23T14:52:58;25.17;;;14.70;;
9214;SDS011;4642;51.364;6.788;2023-02-23T14:55:27;27.93;;;13.40;;
9214;SDS011;4642;51.364;6.788;2023-02-23T14:57:54;31.77;;;15.43;;
9214;SDS011;4642;51.364;6.788;2023-02-23T15:00:21;28.20;;;14.63;;
9214;SDS011;4642;51.364;6.788;2023-02-23T15:05:30;28.53;;;14.40;;
9214;SDS011;4642;51.364;6.788;2023-02-23T15:08:11;27.50;;;15.27;;
9214;SDS011;4642;51.364;6.788;2023-02-23T15:10:43;29.40;;;14.67;;
9214;SDS011;4642;51.364;6.788;2023-02-23T15:13:33;29.53;;;16.63;;
9214;SDS011;4642;51.364;6.788;2023-02-23T15:16:00;30.70;;;16.57;;
9214;SDS011;4642;51.364;6.788;2023-02-23T15:21:52;31.70;;;16.87;;
9214;SDS011;4642;51.364;6.788;2023-02-23T15:24:21;32.07;;;16.10;;
9214;SDS011;4642;51.364;6.788;2023-02-23T15:26:52;32.57;;;16.80;;
9214;SDS011;4642;51.364;6.788;2023-02-23T15:29:23;33.70;;;17.50;;
9214;SDS011;4642;51.364;6.788;2023-02-23T15:31:51;30.20;;;17.77;;
9214;SDS011;4642;51.364;6.788;2023-02-23T15:34:20;30.57;;;15.47;;
9214;SDS011;4642;51.364;6.788;2023-02-23T15:37:10;32.03;;;16.43;;
9214;SDS011;4642;51.364;6.788;2023-02-23T15:39:50;26.80;;;16.27;;
9214;SDS011;4642;51.364;6.788;2023-02-23T15:42:23;26.73;;;16.33;;
9214;SDS011;4642;51.364;6.788;2023-02-23T15:45:12;28.33;;;16.30;;
9214;SDS011;4642;51.364;6.788;2023-02-23T15:47:47;33.83;;;16.20;;
9214;SDS011;4642;51.364;6.788;2023-02-23T15:52:59;28.47;;;16.23;;
9214;SDS011;4642;51.364;6.788;2023-02-23T15:55:30;32.70;;;16.77;;
9214;SDS011;4642;51.364;6.788;2023-02-23T15:57:59;30.63;;;16.77;;
9214;SDS011;4642;51.364;6.788;2023-02-23T16:00:39;32.20;;;17.03;;
9214;SDS011;4642;51.364;6.788;2023-02-23T16:03:07;29.97;;;16.80;;
9214;SDS011;4642;51.364;6.788;2023-02-23T16:06:21;29.93;;;16.27;;
9214;SDS011;4642;51.364;6.788;2023-02-23T16:08:56;29.33;;;16.73;;
9214;SDS011;4642;51.364;6.788;2023-02-23T16:11:23;32.83;;;16.23;;
9214;SDS011;4642;51.364;6.788;2023-02-23T16:13:49;24.87;;;15.37;;
9214;SDS011;4642;51.364;6.788;2023-02-23T16:16:16;32.03;;;14.20;;
9214;SDS011;4642;51.364;6.788;2023-02-23T16:18:52;24.03;;;13.03;;
9214;SDS011;4642;51.364;6.788;2023-02-23T16:21:25;29.17;;;14.03;;
9214;SDS011;4642;51.364;6.788;2023-02-23T16:23:55;25.03;;;13.50;;
9214;SDS011;4642;51.364;6.788;2023-02-23T16:28:56;30.17;;;14.97;;
9214;SDS011;4642;51.364;6.788;2023-02-23T16:31:25;28.33;;;13.27;;
9214;SDS011;4642;51.364;6.788;2023-02-23T16:34:24;24.67;;;13.63;;
9214;SDS011;4642;51.364;6.788;2023-02-23T16:36:53;25.73;;;13.77;;
9214;SDS011;4642;51.364;6.788;2023-02-23T16:39:26;23.50;;;11.90;;
9214;SDS011;4642;51.364;6.788;2023-02-23T16:41:54;26.97;;;13.50;;
9214;SDS011;4642;51.364;6.788;2023-02-23T16:44:24;26.27;;;12.90;;
9214;SDS011;4642;51.364;6.788;2023-02-23T16:49:29;22.67;;;12.37;;
9214;SDS011;4642;51.364;6.788;2023-02-23T16:51:55;27.83;;;13.70;;
9214;SDS011;4642;51.364;6.788;2023-02-23T16:54:21;26.30;;;13.93;;
9214;SDS011;4642;51.364;6.788;2023-02-23T16:56:47;23.90;;;13.33;;
9214;SDS011;4642;51.364;6.788;2023-02-23T16:59:14;20.80;;;12.30;;
9214;SDS011;4642;51.364;6.788;2023-02-23T17:01:41;23.77;;;12.80;;
9214;SDS011;4642;51.364;6.788;2023-02-23T17:04:10;27.17;;;12.87;;
9214;SDS011;4642;51.364;6.788;2023-02-23T17:06:39;26.80;;;13.20;;
9214;SDS011;4642;51.364;6.788;2023-02-23T17:09:07;24.23;;;12.37;;
9214;SDS011;4642;51.364;6.788;2023-02-23T17:11:33;22.33;;;12.60;;
9214;SDS011;4642;51.364;6.788;2023-02-23T17:13:59;22.23;;;12.17;;
9214;SDS011;4642;51.364;6.788;2023-02-23T17:16:24;22.57;;;12.17;;
9214;SDS011;4642;51.364;6.788;2023-02-23T17:18:50;22.20;;;11.63;;
9214;SDS011;4642;51.364;6.788;2023-02-23T17:21:15;22.27;;;12.53;;
9214;SDS011;4642;51.364;6.788;2023-02-23T17:23:47;24.57;;;12.50;;
9214;SDS011;4642;51.364;6.788;2023-02-23T17:26:23;21.20;;;11.23;;
9214;SDS011;4642;51.364;6.788;2023-02-23T17:28:50;25.57;;;11.87;;
9214;SDS011;4642;51.364;6.788;2023-02-23T17:31:16;22.83;;;10.87;;
9214;SDS011;4642;51.364;6.788;2023-02-23T17:33:43;17.70;;;10.07;;
9214;SDS011;4642;51.364;6.788;2023-02-23T17:36:11;21.60;;;11.20;;
9214;SDS011;4642;51.364;6.788;2023-02-23T17:38:38;18.63;;;10.23;;
9214;SDS011;4642;51.364;6.788;2023-02-23T17:41:08;18.27;;;9.60;;